北京 の空港の天気 - METARとTAF

北京首都国際空港 ( ZBAA / PEK ) - 中国 北京市
飛行場実況気象(Metar)
観測時間11/20 17:00 CST (11/20 09:00 UTC)
風向・風速南南東 2m/s
視程10km以上
天気現象
なし
気温6℃
湿度24%
気圧1025hPa
METARZBAA 200900Z 15002MPS CAVOK 06/M13 Q1025 NOSIG
過去の天気等 Google飛行場航空写真 Wunderground天気予報

過去48時間のMETAR

飛行場予報(TAF)
発表時間: 11/20 11:20 CST (11/20 03:20 UTC)
予報対象時間: 20日14時 CST ~ 21日14時 CST
風向・風速南 4m/s
視程6,000m
なし
TAF ZBAA 200320Z 2006/2106 18004MPS 6000 NSC TX09/2007Z TNM05/21Z